Track Цветков Алексей

Time Latitude Longitude Accuracy (66% radius in meters) Altitude (meters) Speed (km/hour) Bearing (degrees) Battery (%) GPS flag
10:21:31 51.753818 39.189465 7.1999998092651 209.2 0.25118443369865 255.5 50 1 delete
10:20:47 51.753923 39.189588 7.3000001907349 210.1 0.38398277759552 254.75 50 1 delete
10:20:21 51.753998 39.189687 7.4000000953674 210.2 1.2399657964706 178.80999755859 50 1 delete
10:20:17 51.754102 39.189757 7.4000000953674 213.7 1.7001274824142 246.61999511719 50 1 delete
10:20:13 51.754162 39.189865 7.4000000953674 211.7 1.8133664131165 217.52000427246 50 1 delete
10:20:09 51.754257 39.189987 7.4000000953674 211.3 2.0455060005188 221.13000488281 50 1 delete
10:20:05 51.754345 39.190095 7.4000000953674 209.9 2.4459600448608 214.55999755859 50 1 delete
10:20:01 51.754425 39.190227 7.4000000953674 210.7 2.849502325058 248.38999938965 50 1 delete
10:19:58 51.754503 39.190353 7.4000000953674 210.3 2.9575939178467 229.58000183105 50 1 delete
10:19:54 51.754577 39.190518 7.4000000953674 208.3 2.6137595176697 223.24000549316 50 1 delete
10:19:51 51.754628 39.190643 7.4000000953674 206.8 2.4964027404785 221.71000671387 50 1 delete
10:19:48 51.754705 39.190778 7.4000000953674 205.5 2.4392685890198 231.49000549316 50 1 delete
10:19:44 51.754753 39.190930 7.4000000953674 204.8 2.6544225215912 220.39999389648 50 1 delete
10:19:41 51.754780 39.191068 7.4000000953674 205.5 3.0075218677521 236.11999511719 50 1 delete
10:19:37 51.754798 39.191248 7.4000000953674 204 3.1192166805267 241.36000061035 50 1 delete
10:19:34 51.754795 39.191403 7.4000000953674 202 3.2916486263275 258.32000732422 50 1 delete
10:19:31 51.754813 39.191563 7.4000000953674 199.1 2.9539909362793 248.91999816895 50 1 delete
10:19:27 51.754850 39.191737 7.4000000953674 194.9 2.7517049312592 257.14999389648 50 1 delete
10:19:24 51.754885 39.191873 7.4000000953674 192.9 2.2750723361969 259.13000488281 50 1 delete
10:19:20 51.754938 39.192032 7.4000000953674 190.8 2.1098463535309 256.89001464844 50 1 delete
10:19:16 51.754982 39.192200 7.4000000953674 189.6 1.865353345871 241.38999938965 50 1 delete
10:19:12 51.755040 39.192317 7.4000000953674 188.4 2.0918312072754 224.46000671387 50 1 delete
10:19:08 51.755078 39.192452 7.4000000953674 188.6 2.4593427181244 216.16000366211 50 1 delete
10:19:04 51.755108 39.192615 7.4000000953674 189.6 2.7712645530701 248.96000671387 50 1 delete
10:19:00 51.755132 39.192760 7.4000000953674 190.3 3.0641412734985 239.38000488281 50 1 delete
10:18:56 51.755143 39.192927 7.4000000953674 189.6 3.1042897701263 260.85998535156 50 1 delete
10:18:53 51.755127 39.193083 7.4000000953674 189.8 3.0059778690338 272.76998901367 50 1 delete
10:18:50 51.755102 39.193243 7.4000000953674 190.5 2.8428108692169 275.13000488281 50 1 delete
10:18:47 51.755078 39.193422 7.4000000953674 191.6 2.8793561458588 277.7799987793 50 1 delete
10:18:44 51.755077 39.193572 7.4000000953674 191.9 2.9112689495087 276.39999389648 50 1 delete
10:18:40 51.755078 39.193752 7.4000000953674 192.6 3.1917924880981 294.23001098633 50 1 delete
10:18:36 51.755055 39.193935 7.4000000953674 194.1 3.3529005050659 295.95999145508 50 1 delete
10:18:33 51.755037 39.194093 7.4000000953674 195.2 3.0692884922028 300.45999145508 50 1 delete
10:18:30 51.755015 39.194237 7.4000000953674 196.3 2.8906800746918 306.60000610352 50 1 delete
10:18:27 51.755018 39.194410 7.4000000953674 198.4 2.6245687007904 290.36999511719 50 1 delete
10:18:23 51.755047 39.194602 7.4000000953674 198.9 2.598317861557 268.04998779297 50 1 delete
10:18:19 51.755100 39.194737 7.4000000953674 201.3 2.655966758728 211.32000732422 50 1 delete
10:18:16 51.755177 39.194840 7.4000000953674 202.4 2.5628018379211 219.66000366211 50 1 delete
10:18:13 51.755263 39.194955 7.4000000953674 203.3 2.4902260303497 212.69000244141 50 1 delete
10:18:10 51.755330 39.195072 7.4000000953674 203 2.4377243518829 215.91000366211 50 1 delete
10:18:06 51.755413 39.195200 7.4000000953674 203.1 2.6364071369171 227.63000488281 50 1 delete
10:18:02 51.755473 39.195308 7.4000000953674 203.6 2.8767824172974 206.0299987793 50 1 delete
10:17:58 51.755568 39.195407 7.4000000953674 203.8 3.073406457901 207.86999511719 50 1 delete
10:17:55 51.755650 39.195483 7.4000000953674 202.4 3.1799538135529 218.7200012207 50 1 delete
10:17:52 51.755708 39.195595 7.4000000953674 200.9 3.3178994655609 222.32000732422 50 1 delete
10:17:49 51.755785 39.195710 7.4000000953674 199.9 3.6138646602631 250.32000732422 50 1 delete
10:17:45 51.755830 39.195887 7.4000000953674 198 3.8542399406433 223.94000244141 50 1 delete
10:17:41 51.755897 39.196047 7.4000000953674 196.1 3.6452627182007 244.35000610352 50 1 delete
10:17:38 51.755938 39.196188 7.3000001907349 194.8 2.690967798233 238.47999572754 50 1 delete
10:17:34 51.756005 39.196343 7.3000001907349 193.4 1.3197478055954 219.63000488281 50 1 delete